Charlestown, IN (47111)

5:00 PM EST on February 26, 2017 (GMT -0500)
CLT Observatory | | Change Station

Elev 639 ft 38.48 °N, 85.59 °W | Updated 7 seconds ago

Clear
Clear
48.2 °F
Feels Like 46 °F
N
6.0
Wind Variable Wind from South
Gusts 12.0 mph

Today
High -- | Low -- °F
--% Chance of Precip.
Yesterday
High -- | Low -- °F
Precip. -- in
Pressure 30.17 in
Visibility 10.0 miles
Clouds Clear
Windchill 46 °F
Dew Point 14 °F
Humidity 25%
Rainfall 0.00 in
Snow Depth Not available.
7:18 AM 6:32 PM
New Moon, 0% visible
METAR KLOU 262153Z 20007KT 10SM CLR 10/M11 A3016 RMK AO2 SLP215 T01001111
Pressure 30.17 in
Visibility 10.0 miles
Clouds Clear
Windchill 46 °F
Dew Point 14 °F
Humidity 25%
Rainfall 0.00 in
Snow Depth Not available.
7:18 AM 6:32 PM
New Moon, 0% visible
METAR KLOU 262153Z 20007KT 10SM CLR 10/M11 A3016 RMK AO2 SLP215 T01001111

Get Your Daily Forecast Email!

Thanks for signing up!

Be on the lookout for a verification email in your inbox.

You'll start receiving the daily forecast at 8 AM.

×

10-Day Weather Forecast

Almanac

Astronomy

Feb. 26, 2017 Rise Set
Actual Time
Civil Twilight
Nautical Twilight
Astronomical Twilight
Moon
Length of Visible Light
Length of Day
Tomorrow will be .
, % of the Moon is Illuminated

Today's Extremes

State Highs State Lows

Community

WunderPhotos

Upload Photos

1,962,540 photos uploaded!

WunderBlog® & News

Nearby

Air Quality

  Air Quality AQ Index Pollutant
Not available.

Snow Depth

Station Depth Elevation

Earthquake Activity

City Distance Mag. Time & Date
Minimum magnitude displayed is 2.5.

Coastal Water Temperatures

Place Temperature

Stations

Nearby Weather Stations

Station Location Temp. Windchill Dew Point Humidity Wind Precip. Elev Updated Type
                   

Watches & Warnings

There are currently no watches in effect.